N636CX KLAX-
Flight info
| Callsign | N636CX |
|---|---|
| Flight time | N/A |
| Altitude | |
| Route | |
| Aircraft | B47G/L-VGD/C |
Departure
| Time | 2026-04-25 20:46 |
|---|---|
| Airport | Los Angeles International Airport (KLAX) |
Arrival
| Time | N/A |
|---|---|
| Airport | - |
| Time | Latitude | Longitude | Altitude | Speed | Heading |
|---|---|---|---|---|---|
| 2026-04-25 20:27 | 33.93309 | -118.40223 | 116 ft | 0 kts | 164° |
| 2026-04-25 20:28 | 33.93309 | -118.40222 | 116 ft | 0 kts | 170° |
| 2026-04-25 20:29 | 33.93309 | -118.40223 | 116 ft | 0 kts | 176° |
| 2026-04-25 20:33 | 33.93309 | -118.40224 | 116 ft | 0 kts | 174° |
| 2026-04-25 20:35 | 33.93310 | -118.40224 | 116 ft | 0 kts | 174° |
| 2026-04-25 20:39 | 33.93330 | -118.40246 | 120 ft | 11 kts | 242° |
| 2026-04-25 20:40 | 33.93383 | -118.40523 | 307 ft | 39 kts | 259° |
| 2026-04-25 20:40 | 33.93343 | -118.40929 | 365 ft | 62 kts | 251° |
| 2026-04-25 20:40 | 33.93294 | -118.41524 | 291 ft | 71 kts | 253° |
| 2026-04-25 20:40 | 33.93229 | -118.42082 | 365 ft | 65 kts | 248° |
| 2026-04-25 20:41 | 33.93144 | -118.42669 | 319 ft | 71 kts | 251° |
| 2026-04-25 20:41 | 33.93032 | -118.43207 | 362 ft | 65 kts | 225° |
| 2026-04-25 20:41 | 33.92600 | -118.43374 | 281 ft | 69 kts | 172° |
| 2026-04-25 20:41 | 33.92148 | -118.43218 | 283 ft | 70 kts | 165° |
| 2026-04-25 20:42 | 33.91658 | -118.42999 | 214 ft | 73 kts | 161° |
| 2026-04-25 20:42 | 33.91197 | -118.42757 | 276 ft | 68 kts | 160° |
| 2026-04-25 20:42 | 33.90828 | -118.42443 | 438 ft | 64 kts | 152° |
| 2026-04-25 20:42 | 33.90407 | -118.42203 | 470 ft | 72 kts | 164° |
| 2026-04-25 20:43 | 33.90066 | -118.41739 | 453 ft | 85 kts | 114° |
| 2026-04-25 20:43 | 33.90041 | -118.41050 | 556 ft | 78 kts | 96° |
| 2026-04-25 20:43 | 33.89914 | -118.40416 | 601 ft | 76 kts | 127° |
| 2026-04-25 20:43 | 33.89564 | -118.39886 | 554 ft | 82 kts | 144° |
| 2026-04-25 20:44 | 33.89102 | -118.39459 | 613 ft | 83 kts | 153° |
| 2026-04-25 20:44 | 33.88818 | -118.38811 | 636 ft | 96 kts | 110° |
| 2026-04-25 20:44 | 33.88844 | -118.38000 | 660 ft | 98 kts | 91° |
| 2026-04-25 20:44 | 33.88911 | -118.37162 | 601 ft | 102 kts | 94° |
| 2026-04-25 20:45 | 33.88907 | -118.36308 | 493 ft | 102 kts | 102° |
| 2026-04-25 20:45 | 33.88799 | -118.35493 | 479 ft | 95 kts | 111° |
| 2026-04-25 20:45 | 33.89000 | -118.34827 | 554 ft | 101 kts | 22° |
| 2026-04-25 20:45 | 33.89447 | -118.35262 | 575 ft | 84 kts | 277° |
| 2026-04-25 20:46 | 33.89531 | -118.35923 | 753 ft | 84 kts | 277° |
| 2026-04-25 20:46 | 33.89735 | -118.36623 | 751 ft | 95 kts | 288° |
| 2026-04-25 20:46 | 33.90059 | -118.37354 | 629 ft | 100 kts | 295° |
| 2026-04-25 20:46 | 33.90478 | -118.38013 | 587 ft | 99 kts | 306° |
| 2026-04-25 20:47 | 33.90953 | -118.38605 | 617 ft | 93 kts | 317° |
| 2026-04-25 20:47 | 33.91442 | -118.39072 | 788 ft | 86 kts | 306° |
| 2026-04-25 20:47 | 33.91400 | -118.39669 | 951 ft | 71 kts | 226° |
| 2026-04-25 20:47 | 33.90917 | -118.39647 | 1114 ft | 74 kts | 171° |
| 2026-04-25 20:48 | 33.90423 | -118.39580 | 1278 ft | 72 kts | 187° |
| 2026-04-25 20:48 | 33.89928 | -118.39691 | 1432 ft | 72 kts | 198° |
| 2026-04-25 20:48 | 33.89436 | -118.39842 | 1598 ft | 69 kts | 216° |
| 2026-04-25 20:48 | 33.89672 | -118.40279 | 1698 ft | 93 kts | 355° |
| 2026-04-25 20:49 | 33.90278 | -118.39938 | 1806 ft | 96 kts | 28° |
| 2026-04-25 20:49 | 33.90920 | -118.39758 | 1898 ft | 96 kts | 8° |
| 2026-04-25 20:49 | 33.91267 | -118.39166 | 1984 ft | 90 kts | 104° |
| 2026-04-25 20:49 | 33.90823 | -118.38741 | 1925 ft | 88 kts | 181° |
| 2026-04-25 20:50 | 33.90353 | -118.39154 | 1744 ft | 94 kts | 250° |
| 2026-04-25 20:50 | 33.90686 | -118.39661 | 1964 ft | 81 kts | 3° |
| 2026-04-25 20:50 | 33.90972 | -118.39192 | 2270 ft | 74 kts | 99° |
| 2026-04-25 20:50 | 33.90636 | -118.38726 | 2356 ft | 82 kts | 164° |
| 2026-04-25 20:51 | 33.90137 | -118.38899 | 2400 ft | 81 kts | 232° |
| 2026-04-25 20:51 | 33.90202 | -118.39570 | 2348 ft | 100 kts | 303° |
| 2026-04-25 20:51 | 33.90906 | -118.39912 | 1956 ft | 115 kts | 353° |
| 2026-04-25 20:51 | 33.91596 | -118.39545 | 1868 ft | 105 kts | 54° |
| 2026-04-25 20:52 | 33.91589 | -118.38751 | 1708 ft | 100 kts | 129° |
| 2026-04-25 20:52 | 33.91188 | -118.38472 | 1407 ft | 101 kts | 171° |
| 2026-04-25 20:52 | 33.90935 | -118.39132 | 1331 ft | 107 kts | 307° |
| 2026-04-25 20:52 | 33.91583 | -118.39160 | 1552 ft | 79 kts | 12° |
| 2026-04-25 20:53 | 33.92156 | -118.39240 | 1679 ft | 95 kts | 348° |
| 2026-04-25 20:53 | 33.92811 | -118.39459 | 1719 ft | 96 kts | 343° |
| 2026-04-25 20:53 | 33.93474 | -118.39559 | 1854 ft | 92 kts | 359° |
| 2026-04-25 20:53 | 33.94101 | -118.39543 | 2048 ft | 91 kts | 358° |
| 2026-04-25 20:54 | 33.94748 | -118.39568 | 2157 ft | 95 kts | 358° |
| 2026-04-25 20:54 | 33.95407 | -118.39571 | 2270 ft | 93 kts | 1° |
| 2026-04-25 20:54 | 33.96088 | -118.39539 | 2301 ft | 100 kts | 4° |
| 2026-04-25 20:54 | 33.96770 | -118.39454 | 2383 ft | 97 kts | 13° |
| 2026-04-25 20:55 | 33.97436 | -118.39304 | 2476 ft | 98 kts | 14° |
| 2026-04-25 20:55 | 33.97978 | -118.38834 | 2562 ft | 94 kts | 49° |
| 2026-04-25 20:55 | 33.98387 | -118.38135 | 2422 ft | 107 kts | 65° |
| 2026-04-25 20:55 | 33.98746 | -118.37363 | 2400 ft | 100 kts | 67° |
| 2026-04-25 20:56 | 33.99030 | -118.36665 | 2590 ft | 91 kts | 72° |
| 2026-04-25 20:56 | 33.99261 | -118.35906 | 2553 ft | 102 kts | 79° |
| 2026-04-25 20:56 | 33.99476 | -118.35020 | 2205 ft | 118 kts | 77° |
| 2026-04-25 20:56 | 33.99704 | -118.34062 | 1752 ft | 119 kts | 79° |
| 2026-04-25 20:57 | 33.99918 | -118.33128 | 1445 ft | 113 kts | 82° |
| 2026-04-25 20:57 | 34.00128 | -118.32252 | 1339 ft | 102 kts | 82° |
| 2026-04-25 20:57 | 34.00300 | -118.31423 | 1264 ft | 105 kts | 79° |
| 2026-04-25 20:57 | 34.00459 | -118.30567 | 1156 ft | 103 kts | 90° |
| 2026-04-25 20:58 | 34.00525 | -118.29717 | 1109 ft | 99 kts | 94° |
| 2026-04-25 20:58 | 34.00698 | -118.28890 | 999 ft | 105 kts | 70° |
| 2026-04-25 20:58 | 34.01163 | -118.28230 | 1089 ft | 100 kts | 51° |
| 2026-04-25 20:58 | 34.01791 | -118.27839 | 1071 ft | 107 kts | 10° |
| 2026-04-25 20:59 | 34.02300 | -118.28348 | 914 ft | 98 kts | 276° |
| 2026-04-25 20:59 | 34.01943 | -118.28827 | 870 ft | 86 kts | 182° |
| 2026-04-25 20:59 | 34.01408 | -118.28374 | 597 ft | 98 kts | 147° |
| 2026-04-25 20:59 | 34.00784 | -118.28132 | 373 ft | 90 kts | 178° |
| 2026-04-25 21:00 | 34.00193 | -118.28128 | 371 ft | 83 kts | 184° |
| 2026-04-25 21:00 | 33.99794 | -118.28088 | 345 ft | 84 kts | 179° |